createdAt,value
2017-10-14T00:00:36.051Z,16.60
2017-10-14T00:03:03.781Z,16.60
2017-10-14T00:05:31.581Z,16.60
2017-10-14T00:07:59.449Z,16.60
2017-10-14T00:10:27.315Z,16.60
2017-10-14T00:12:55.184Z,16.60
2017-10-14T00:15:23.050Z,16.60
2017-10-14T00:17:50.916Z,16.50
2017-10-14T00:20:18.784Z,16.50
2017-10-14T00:22:46.652Z,16.50
2017-10-14T00:25:14.520Z,16.50
2017-10-14T00:27:42.388Z,16.50
2017-10-14T00:30:10.110Z,16.50
2017-10-14T00:32:37.862Z,16.30
2017-10-14T00:35:06.500Z,16.40
2017-10-14T00:37:34.294Z,16.40
2017-10-14T00:40:02.952Z,16.40
2017-10-14T00:42:30.819Z,16.40
2017-10-14T00:44:58.686Z,16.30
2017-10-14T00:47:26.553Z,16.30
2017-10-14T00:49:54.420Z,16.30
2017-10-14T00:52:22.288Z,16.30
2017-10-14T00:54:50.157Z,16.20
2017-10-14T00:57:18.023Z,16.10
2017-10-14T00:59:45.890Z,16.00
2017-10-14T01:02:13.757Z,16.00
2017-10-14T01:04:41.625Z,15.90
2017-10-14T01:07:09.493Z,15.90
2017-10-14T01:09:37.360Z,15.80
2017-10-14T01:12:05.229Z,15.80
2017-10-14T01:14:33.094Z,15.70
2017-10-14T01:17:00.961Z,15.60
2017-10-14T01:19:28.828Z,15.50
2017-10-14T01:21:56.697Z,15.40
2017-10-14T01:24:24.470Z,15.40
2017-10-14T01:26:52.247Z,15.30
2017-10-14T01:29:20.902Z,15.30
2017-10-14T01:31:48.650Z,15.30
2017-10-14T01:34:16.423Z,15.20
2017-10-14T01:36:44.197Z,15.20
2017-10-14T01:39:12.082Z,15.20
2017-10-14T01:41:39.941Z,15.10
2017-10-14T01:44:07.735Z,15.10
2017-10-14T01:46:35.676Z,15.00
2017-10-14T01:49:03.544Z,15.00
2017-10-14T01:51:31.411Z,14.90
2017-10-14T01:53:59.279Z,14.80
2017-10-14T01:56:27.145Z,14.80
2017-10-14T01:58:55.013Z,14.80
2017-10-14T02:01:22.880Z,14.70
2017-10-14T02:03:50.751Z,14.70
2017-10-14T02:06:18.718Z,14.60
2017-10-14T02:08:46.585Z,14.60
2017-10-14T02:11:14.451Z,14.50
2017-10-14T02:13:42.320Z,14.50
2017-10-14T02:16:10.187Z,14.50
2017-10-14T02:18:38.054Z,14.40
2017-10-14T02:21:05.819Z,14.30
2017-10-14T02:23:33.686Z,14.30
2017-10-14T02:26:01.554Z,14.20
2017-10-14T02:28:29.421Z,14.20
2017-10-14T02:30:57.287Z,14.20
2017-10-14T02:33:25.155Z,14.10
2017-10-14T02:35:53.022Z,14.10
2017-10-14T02:38:20.892Z,14.10
2017-10-14T02:40:48.757Z,14.00
2017-10-14T02:43:16.630Z,14.00
2017-10-14T02:45:44.514Z,14.00
2017-10-14T02:48:12.382Z,13.90
2017-10-14T02:50:40.232Z,13.90
2017-10-14T02:53:08.200Z,13.80
2017-10-14T02:55:36.068Z,13.80
2017-10-14T02:58:03.936Z,13.70
2017-10-14T03:00:31.799Z,13.70
2017-10-14T03:02:59.667Z,13.60
2017-10-14T03:05:27.635Z,13.60
2017-10-14T03:07:55.502Z,13.50
2017-10-14T03:10:23.369Z,13.50
2017-10-14T03:12:51.241Z,13.50
2017-10-14T03:15:19.105Z,13.50
2017-10-14T03:17:46.972Z,13.40
2017-10-14T03:20:14.856Z,13.40
2017-10-14T03:22:42.705Z,13.30
2017-10-14T03:25:10.573Z,13.20
2017-10-14T03:27:38.370Z,13.20
2017-10-14T03:30:07.026Z,13.10
2017-10-14T03:32:34.893Z,13.10
2017-10-14T03:35:02.785Z,13.10
2017-10-14T03:37:30.627Z,13.00
2017-10-14T03:39:58.495Z,13.00
2017-10-14T03:42:26.361Z,12.90
2017-10-14T03:44:54.228Z,12.90
2017-10-14T03:47:22.096Z,12.90
2017-10-14T03:49:49.964Z,12.90
2017-10-14T03:52:17.832Z,12.90
2017-10-14T03:54:45.699Z,12.90
2017-10-14T03:57:13.565Z,12.90
2017-10-14T03:59:41.432Z,12.80
2017-10-14T04:02:09.303Z,12.80
2017-10-14T04:04:37.167Z,12.70
2017-10-14T04:07:05.035Z,12.70
2017-10-14T04:09:32.905Z,12.70
2017-10-14T04:12:00.770Z,12.70
2017-10-14T04:14:28.637Z,12.70
2017-10-14T04:16:56.505Z,12.60
2017-10-14T04:19:24.372Z,12.60
2017-10-14T04:21:52.340Z,12.60
2017-10-14T04:24:20.209Z,12.60
2017-10-14T04:26:48.076Z,12.60
2017-10-14T04:29:15.945Z,12.60
2017-10-14T04:31:43.809Z,12.60
2017-10-14T04:34:11.677Z,12.60
2017-10-14T04:36:39.427Z,12.50
2017-10-14T04:39:07.309Z,12.50
2017-10-14T04:44:09.190Z,12.50
2017-10-14T04:46:40.098Z,12.40
2017-10-14T04:49:07.893Z,12.40
2017-10-14T04:51:39.477Z,12.40
2017-10-14T04:54:10.764Z,12.40
2017-10-14T04:56:44.990Z,12.40
2017-10-14T04:59:17.698Z,12.40
2017-10-14T05:01:49.080Z,12.30
2017-10-14T05:04:19.669Z,12.30
2017-10-14T05:06:49.696Z,12.30
2017-10-14T05:09:22.321Z,12.30
2017-10-14T05:11:52.091Z,12.20
2017-10-14T05:14:22.882Z,12.20
2017-10-14T05:16:50.786Z,12.00
2017-10-14T05:19:18.654Z,11.90
2017-10-14T05:21:46.522Z,11.80
2017-10-14T05:24:14.235Z,11.80
2017-10-14T05:26:42.051Z,11.90
2017-10-14T05:29:09.760Z,11.80
2017-10-14T05:31:37.580Z,11.80
2017-10-14T05:34:05.374Z,11.80
2017-10-14T05:36:34.072Z,11.70
2017-10-14T05:39:02.774Z,11.70
2017-10-14T05:41:30.585Z,11.60
2017-10-14T05:43:58.453Z,11.70
2017-10-14T05:46:26.320Z,11.60
2017-10-14T05:48:54.187Z,11.50
2017-10-14T05:51:22.054Z,11.40
2017-10-14T05:53:49.922Z,11.40
2017-10-14T05:56:17.790Z,11.40
2017-10-14T05:58:45.663Z,11.40
2017-10-14T06:01:13.528Z,11.40
2017-10-14T06:03:41.393Z,11.50
2017-10-14T06:06:09.098Z,11.50
2017-10-14T06:08:37.744Z,11.60
2017-10-14T06:11:05.446Z,11.60
2017-10-14T06:13:33.922Z,11.80
2017-10-14T06:16:02.470Z,11.90
2017-10-14T06:18:30.337Z,11.90
2017-10-14T06:20:58.203Z,12.00
2017-10-14T06:23:26.070Z,12.10
2017-10-14T06:25:53.941Z,12.10
2017-10-14T06:28:21.806Z,12.20
2017-10-14T06:30:49.877Z,12.30
2017-10-14T06:33:17.744Z,12.30
2017-10-14T06:35:45.612Z,12.30
2017-10-14T06:38:13.479Z,12.40
2017-10-14T06:40:41.345Z,12.40
2017-10-14T06:43:09.214Z,12.50
2017-10-14T06:45:37.010Z,12.50
2017-10-14T06:48:04.846Z,12.50
2017-10-14T06:50:32.714Z,12.60
2017-10-14T06:53:00.581Z,12.70
2017-10-14T06:55:28.448Z,12.70
2017-10-14T06:57:56.316Z,12.80
2017-10-14T07:00:24.182Z,12.90
2017-10-14T07:02:51.890Z,13.00
2017-10-14T07:05:20.604Z,13.40
2017-10-14T07:07:48.398Z,13.40
2017-10-14T07:10:16.266Z,13.60
2017-10-14T07:12:44.133Z,13.80
2017-10-14T07:15:11.842Z,13.90
2017-10-14T07:17:40.482Z,14.00
2017-10-14T07:20:08.350Z,14.00
2017-10-14T07:22:36.218Z,14.10
2017-10-14T07:25:04.086Z,14.30
2017-10-14T07:27:31.951Z,14.50
2017-10-14T07:29:59.819Z,14.70
2017-10-14T07:32:27.686Z,14.80
2017-10-14T07:34:55.554Z,15.10
2017-10-14T07:37:23.422Z,15.30
2017-10-14T07:39:51.141Z,15.50
2017-10-14T07:42:18.900Z,15.70
2017-10-14T07:44:46.716Z,15.80
2017-10-14T07:47:14.583Z,15.90
2017-10-14T07:49:42.330Z,15.90
2017-10-14T07:52:10.214Z,15.80
2017-10-14T07:54:37.924Z,15.90
2017-10-14T07:57:06.409Z,15.70
2017-10-14T07:59:35.047Z,15.80
2017-10-14T08:02:02.913Z,15.70
2017-10-14T08:04:30.780Z,15.80
2017-10-14T08:06:58.535Z,16.00
2017-10-14T08:09:26.412Z,16.20
2017-10-14T08:11:54.280Z,17.00
2017-10-14T08:14:22.147Z,17.90
2017-10-14T08:16:50.015Z,19.00
2017-10-14T08:19:17.730Z,20.40
2017-10-14T08:21:45.543Z,22.00
2017-10-14T08:24:13.412Z,23.90
2017-10-14T08:26:41.116Z,25.20
2017-10-14T08:29:09.760Z,26.70
2017-10-14T08:31:37.630Z,26.70
2017-10-14T08:34:05.495Z,28.20
2017-10-14T08:36:33.361Z,29.60
2017-10-14T08:39:01.229Z,30.80
2017-10-14T08:41:29.097Z,32.20
2017-10-14T08:43:56.890Z,32.30
2017-10-14T08:46:24.594Z,33.50
2017-10-14T08:48:52.494Z,34.30
2017-10-14T08:51:20.199Z,34.20
2017-10-14T08:53:48.675Z,34.10
2017-10-14T08:56:17.184Z,34.60
2017-10-14T08:58:45.096Z,34.60
2017-10-14T09:01:12.957Z,35.30
2017-10-14T09:03:41.607Z,35.70
2017-10-14T09:06:10.458Z,35.70
2017-10-14T09:08:38.235Z,35.40
2017-10-14T09:11:06.884Z,34.90
2017-10-14T09:13:34.858Z,34.90
2017-10-14T09:16:02.589Z,34.70
2017-10-14T09:18:30.705Z,34.90
2017-10-14T09:20:58.562Z,35.50
2017-10-14T09:23:26.429Z,35.10
2017-10-14T09:25:54.308Z,34.50
2017-10-14T09:28:22.163Z,33.80
2017-10-14T09:30:50.027Z,33.20
2017-10-14T09:33:17.895Z,32.70
2017-10-14T09:35:45.763Z,32.50
2017-10-14T09:38:13.629Z,32.90
2017-10-14T09:40:41.496Z,33.00
2017-10-14T09:43:09.363Z,33.10
2017-10-14T09:45:37.234Z,33.00
2017-10-14T09:48:05.099Z,32.60
2017-10-14T09:50:32.966Z,32.20
2017-10-14T09:53:00.683Z,31.70
2017-10-14T09:55:28.395Z,31.30
2017-10-14T09:57:56.261Z,31.10
2017-10-14T10:00:24.128Z,31.10
2017-10-14T10:02:51.995Z,30.80
2017-10-14T10:05:19.863Z,30.60
2017-10-14T10:07:47.695Z,30.40
2017-10-14T10:10:15.494Z,30.30
2017-10-14T10:12:43.362Z,30.20
2017-10-14T10:15:11.229Z,30.10
2017-10-14T10:17:39.100Z,29.80
2017-10-14T10:20:06.965Z,29.60
2017-10-14T10:22:34.831Z,29.50
2017-10-14T10:25:02.699Z,29.20
2017-10-14T10:27:30.567Z,29.10
2017-10-14T10:29:58.433Z,29.00
2017-10-14T10:32:26.300Z,28.80
2017-10-14T10:34:54.168Z,28.40
2017-10-14T10:37:22.039Z,28.30
2017-10-14T10:39:49.770Z,28.40
2017-10-14T10:42:17.495Z,28.60
2017-10-14T10:44:45.993Z,28.60
2017-10-14T10:47:14.479Z,28.50
2017-10-14T10:49:42.293Z,28.50
2017-10-14T10:52:10.086Z,28.30
2017-10-14T10:54:37.924Z,28.20
2017-10-14T10:57:05.646Z,28.20
2017-10-14T10:59:33.348Z,28.20
2017-10-14T11:02:01.046Z,28.10
2017-10-14T11:04:28.751Z,28.20
2017-10-14T11:06:56.495Z,28.20
2017-10-14T11:09:24.199Z,28.20
2017-10-14T11:11:51.906Z,28.20
2017-10-14T11:14:20.400Z,28.20
2017-10-14T11:16:48.866Z,27.90
2017-10-14T11:19:17.519Z,27.90
2017-10-14T11:21:45.387Z,27.90
2017-10-14T11:24:13.254Z,28.00
2017-10-14T11:26:41.121Z,27.80
2017-10-14T11:29:08.994Z,27.80
2017-10-14T11:31:36.856Z,27.80
2017-10-14T11:34:04.724Z,27.70
2017-10-14T11:36:32.449Z,27.50
2017-10-14T11:39:00.254Z,27.50
2017-10-14T11:41:28.126Z,27.30
2017-10-14T11:43:55.989Z,27.20
2017-10-14T11:46:23.856Z,27.20
2017-10-14T11:48:51.722Z,27.20
2017-10-14T11:51:19.422Z,27.20
2017-10-14T11:53:47.887Z,27.70
2017-10-14T11:56:15.590Z,27.70
2017-10-14T11:58:43.396Z,27.80
2017-10-14T12:01:11.265Z,27.80
2017-10-14T12:03:39.132Z,27.80
2017-10-14T12:06:06.998Z,27.80
2017-10-14T12:08:34.866Z,27.60
2017-10-14T12:11:02.662Z,27.50
2017-10-14T12:13:30.381Z,27.20
2017-10-14T12:15:58.099Z,26.80
2017-10-14T12:18:26.028Z,26.80
2017-10-14T12:20:54.521Z,26.40
2017-10-14T12:23:22.252Z,26.30
2017-10-14T12:25:49.984Z,26.50
2017-10-14T12:28:17.804Z,26.50
2017-10-14T12:30:45.672Z,26.30
2017-10-14T12:33:13.402Z,26.40
2017-10-14T12:35:41.205Z,26.70
2017-10-14T12:38:09.118Z,27.00
2017-10-14T12:40:37.761Z,26.90
2017-10-14T12:43:05.627Z,26.90
2017-10-14T12:45:33.351Z,26.90
2017-10-14T12:48:01.090Z,26.60
2017-10-14T12:50:29.673Z,26.90
2017-10-14T12:52:58.215Z,27.10
2017-10-14T12:55:25.940Z,27.00
2017-10-14T12:57:53.854Z,27.30
2017-10-14T13:00:21.723Z,27.10
2017-10-14T13:02:49.586Z,26.80
2017-10-14T13:05:17.302Z,26.60
2017-10-14T13:07:45.115Z,26.70
2017-10-14T13:10:12.983Z,27.00
2017-10-14T13:12:40.849Z,27.20
2017-10-14T13:15:08.569Z,27.40
2017-10-14T13:17:36.306Z,27.70
2017-10-14T13:20:04.075Z,27.90
2017-10-14T13:22:32.729Z,28.20
2017-10-14T13:25:00.597Z,28.10
2017-10-14T13:27:28.309Z,28.20
2017-10-14T13:29:56.794Z,27.80
2017-10-14T13:32:24.523Z,27.80
2017-10-14T13:34:52.243Z,27.70
2017-10-14T13:37:20.035Z,27.90
2017-10-14T13:39:47.903Z,27.70
2017-10-14T13:42:15.670Z,27.60
2017-10-14T13:44:43.442Z,27.70
2017-10-14T13:47:11.298Z,27.70
2017-10-14T13:49:39.009Z,27.80
2017-10-14T13:52:07.498Z,27.90
2017-10-14T13:54:35.268Z,27.80
2017-10-14T13:57:03.010Z,28.00
2017-10-14T13:59:31.761Z,27.80
2017-10-14T14:01:59.459Z,27.80
2017-10-14T14:04:28.009Z,27.70
2017-10-14T14:06:55.718Z,27.70
2017-10-14T14:09:24.219Z,27.50
2017-10-14T14:11:51.959Z,27.40
2017-10-14T14:14:20.486Z,27.60
2017-10-14T14:16:48.191Z,27.60
2017-10-14T14:19:16.031Z,27.60
2017-10-14T14:21:43.898Z,27.60
2017-10-14T14:24:11.638Z,27.50
2017-10-14T14:26:39.498Z,27.00
2017-10-14T14:29:07.242Z,26.90
2017-10-14T14:31:35.722Z,26.60
2017-10-14T14:34:04.244Z,26.50
2017-10-14T14:36:32.086Z,26.60
2017-10-14T14:38:59.893Z,26.60
2017-10-14T14:41:27.759Z,26.60
2017-10-14T14:43:55.626Z,26.70
2017-10-14T14:46:23.332Z,26.70
2017-10-14T14:48:51.802Z,26.90
2017-10-14T14:51:20.354Z,27.00
2017-10-14T14:53:48.228Z,26.90
2017-10-14T14:56:16.090Z,27.20
2017-10-14T14:58:43.955Z,27.70
2017-10-14T15:01:11.823Z,28.50
2017-10-14T15:03:39.692Z,29.60
2017-10-14T15:06:07.558Z,30.70
2017-10-14T15:08:35.358Z,31.60
2017-10-14T15:11:03.838Z,32.50
2017-10-14T15:13:32.305Z,32.40
2017-10-14T15:16:00.153Z,32.30
2017-10-14T15:18:28.022Z,32.40
2017-10-14T15:20:55.888Z,32.40
2017-10-14T15:23:23.595Z,31.80
2017-10-14T15:25:52.238Z,30.00
2017-10-14T15:28:20.105Z,29.90
2017-10-14T15:30:47.972Z,29.10
2017-10-14T15:33:15.838Z,28.30
2017-10-14T15:35:43.707Z,27.70
2017-10-14T15:38:11.577Z,27.30
2017-10-14T15:40:39.299Z,27.00
2017-10-14T15:43:07.104Z,26.60
2017-10-14T15:45:34.815Z,26.30
2017-10-14T15:48:02.634Z,26.10
2017-10-14T15:50:30.500Z,26.30
2017-10-14T15:52:58.212Z,26.50
2017-10-14T15:55:26.690Z,25.70
2017-10-14T15:57:55.170Z,25.40
2017-10-14T16:00:23.645Z,25.00
2017-10-14T16:02:52.135Z,24.60
2017-10-14T16:05:20.783Z,24.20
2017-10-14T16:07:48.648Z,24.20
2017-10-14T16:10:16.516Z,23.70
2017-10-14T16:12:44.382Z,23.20
2017-10-14T16:15:12.861Z,22.40
2017-10-14T16:17:40.563Z,22.40
2017-10-14T16:20:09.106Z,21.90
2017-10-14T16:22:36.976Z,21.80
2017-10-14T16:25:04.848Z,21.60
2017-10-14T16:27:32.708Z,21.30
2017-10-14T16:30:00.450Z,21.20
2017-10-14T16:32:30.492Z,21.10
2017-10-14T16:35:01.364Z,20.80
2017-10-14T16:37:31.065Z,20.50
2017-10-14T16:40:00.201Z,20.40
2017-10-14T16:42:27.909Z,20.10
2017-10-14T16:44:55.627Z,19.70
2017-10-14T16:47:23.335Z,19.40
2017-10-14T16:49:51.046Z,19.10
2017-10-14T16:52:18.769Z,18.80
2017-10-14T16:54:46.622Z,18.70
2017-10-14T16:57:14.490Z,18.60
2017-10-14T16:59:42.357Z,18.70
2017-10-14T17:02:10.226Z,18.80
2017-10-14T17:04:38.090Z,18.80
2017-10-14T17:07:05.807Z,18.80
2017-10-14T17:09:36.421Z,18.60
2017-10-14T17:12:06.624Z,18.60
2017-10-14T17:14:36.975Z,18.60
2017-10-14T17:17:07.046Z,18.60
2017-10-14T17:19:35.001Z,18.60
2017-10-14T17:22:03.746Z,18.60
2017-10-14T17:24:32.498Z,18.50
2017-10-14T17:27:01.292Z,18.50
2017-10-14T17:29:29.155Z,18.40
2017-10-14T17:32:05.032Z,18.40
2017-10-14T17:34:45.960Z,18.30
2017-10-14T17:37:16.582Z,18.30
2017-10-14T17:39:47.374Z,18.20
2017-10-14T17:42:17.954Z,18.20
2017-10-14T17:44:48.415Z,18.00
2017-10-14T17:47:16.585Z,18.00
2017-10-14T17:49:44.452Z,17.90
2017-10-14T17:52:12.322Z,17.90
2017-10-14T17:54:40.187Z,17.80
2017-10-14T17:57:08.058Z,17.70
2017-10-14T17:59:35.924Z,17.60
2017-10-14T18:02:03.794Z,17.50
2017-10-14T18:04:31.658Z,17.40
2017-10-14T18:06:59.523Z,17.40
2017-10-14T18:09:27.390Z,17.40
2017-10-14T18:11:55.258Z,17.30
2017-10-14T18:14:23.125Z,17.30
2017-10-14T18:16:52.448Z,17.20
2017-10-14T18:19:21.112Z,17.10
2017-10-14T18:21:48.981Z,17.10
2017-10-14T18:24:16.848Z,17.10
2017-10-14T18:26:44.716Z,17.00
2017-10-14T18:29:13.230Z,16.90
2017-10-14T18:31:41.996Z,16.70
2017-10-14T18:34:09.701Z,16.70
2017-10-14T18:36:37.411Z,16.70
2017-10-14T18:39:05.281Z,16.60
2017-10-14T18:41:33.249Z,16.50
2017-10-14T18:44:01.118Z,16.50
2017-10-14T18:46:28.882Z,16.50
2017-10-14T18:48:56.750Z,16.50
2017-10-14T18:51:25.830Z,16.40
2017-10-14T18:53:53.713Z,16.40
2017-10-14T18:56:21.579Z,16.40
2017-10-14T18:58:49.550Z,16.40
2017-10-14T19:01:17.302Z,16.40
2017-10-14T19:03:45.034Z,16.30
2017-10-14T19:06:12.814Z,16.30
2017-10-14T19:08:40.814Z,16.20
2017-10-14T19:11:08.681Z,16.20
2017-10-14T19:13:36.398Z,16.10
2017-10-14T19:16:04.118Z,16.10
2017-10-14T19:18:31.842Z,16.00
2017-10-14T19:20:59.567Z,16.00
2017-10-14T19:23:28.063Z,15.90
2017-10-14T19:25:56.546Z,15.90
2017-10-14T19:28:25.193Z,15.90
2017-10-14T19:30:52.911Z,15.80
2017-10-14T19:33:20.637Z,15.80
2017-10-14T19:35:48.365Z,15.80
2017-10-14T19:38:16.082Z,15.80
2017-10-14T19:40:44.563Z,15.70
2017-10-14T19:43:13.048Z,15.70
2017-10-14T19:45:41.598Z,15.70
2017-10-14T19:48:09.335Z,15.60
2017-10-14T19:50:37.070Z,15.60
2017-10-14T19:53:04.794Z,15.60
2017-10-14T19:55:32.648Z,15.60
2017-10-14T19:58:00.517Z,15.60
2017-10-14T20:00:28.383Z,15.50
2017-10-14T20:02:56.251Z,15.50
2017-10-14T20:05:24.120Z,15.50
2017-10-14T20:07:51.986Z,15.40
2017-10-14T20:10:19.858Z,15.40
2017-10-14T20:12:49.460Z,15.30
2017-10-14T20:15:17.328Z,15.30
2017-10-14T20:17:45.195Z,15.30
2017-10-14T20:20:13.062Z,15.30
2017-10-14T20:22:40.784Z,15.20
2017-10-14T20:25:08.493Z,15.20
2017-10-14T20:27:36.210Z,15.20
2017-10-14T20:30:03.970Z,15.20
2017-10-14T20:32:31.678Z,15.10
2017-10-14T20:34:59.550Z,15.10
2017-10-14T20:37:27.416Z,15.10
2017-10-14T20:39:55.284Z,15.00
2017-10-14T20:42:23.151Z,14.90
2017-10-14T20:44:51.020Z,14.80
2017-10-14T20:47:18.886Z,14.70
2017-10-14T20:49:46.758Z,14.70
2017-10-14T20:52:14.620Z,14.60
2017-10-14T20:54:42.489Z,14.60
2017-10-14T20:57:10.356Z,14.60
2017-10-14T20:59:38.222Z,14.60
2017-10-14T21:02:05.960Z,14.50
2017-10-14T21:04:33.661Z,14.50
2017-10-14T21:07:01.366Z,14.50
2017-10-14T21:09:29.161Z,14.40
2017-10-14T21:11:56.945Z,14.40
2017-10-14T21:14:24.812Z,14.40
2017-10-14T21:16:52.679Z,14.40
2017-10-14T21:19:20.547Z,14.30
2017-10-14T21:21:48.413Z,14.30
2017-10-14T21:24:16.281Z,14.30
2017-10-14T21:26:44.149Z,14.20
2017-10-14T21:29:11.846Z,14.20
2017-10-14T21:31:40.496Z,13.90
2017-10-14T21:34:10.030Z,13.80
2017-10-14T21:36:40.144Z,13.80
2017-10-14T21:39:09.882Z,13.90
2017-10-14T21:41:38.520Z,13.90
2017-10-14T21:44:06.238Z,13.90
2017-10-14T21:46:34.050Z,13.90
2017-10-14T21:49:01.917Z,13.90
2017-10-14T21:51:29.783Z,14.00
2017-10-14T21:53:57.652Z,13.90
2017-10-14T21:56:25.361Z,13.90
2017-10-14T21:58:53.841Z,13.90
2017-10-14T22:01:22.482Z,13.90
2017-10-14T22:03:50.256Z,13.90
2017-10-14T22:06:18.114Z,13.90
2017-10-14T22:08:45.983Z,13.90
2017-10-14T22:11:13.850Z,13.90
2017-10-14T22:13:41.716Z,13.90
2017-10-14T22:16:09.586Z,13.90
2017-10-14T22:18:37.452Z,13.90
2017-10-14T22:21:05.319Z,13.80
2017-10-14T22:23:33.030Z,13.80
2017-10-14T22:26:04.333Z,13.80
2017-10-14T22:28:32.123Z,13.70
2017-10-14T22:31:00.371Z,13.70
2017-10-14T22:33:28.346Z,13.70
2017-10-14T22:35:56.421Z,13.70
2017-10-14T22:38:24.387Z,13.60
2017-10-14T22:40:52.085Z,13.50
2017-10-14T22:43:20.636Z,13.50
2017-10-14T22:45:48.500Z,13.40
2017-10-14T22:48:16.202Z,13.40
2017-10-14T22:50:44.731Z,13.40
2017-10-14T22:53:12.444Z,13.40
2017-10-14T22:55:40.930Z,13.30
2017-10-14T22:58:09.401Z,13.30
2017-10-14T23:00:37.953Z,13.30
2017-10-14T23:03:05.662Z,13.20
2017-10-14T23:05:34.138Z,13.30
2017-10-14T23:08:02.602Z,13.20
2017-10-14T23:10:30.319Z,13.20
2017-10-14T23:12:58.109Z,13.10
2017-10-14T23:15:25.977Z,13.10
2017-10-14T23:17:53.743Z,13.10
2017-10-14T23:20:21.534Z,13.10
2017-10-14T23:22:49.242Z,13.10
2017-10-14T23:25:16.957Z,13.00
2017-10-14T23:27:44.670Z,13.00
2017-10-14T23:30:12.394Z,12.90
2017-10-14T23:32:40.865Z,12.80
2017-10-14T23:35:08.581Z,12.80
2017-10-14T23:37:36.376Z,12.80
2017-10-14T23:40:04.083Z,12.80
2017-10-14T23:42:32.722Z,12.70
2017-10-14T23:45:00.456Z,12.70
2017-10-14T23:47:28.158Z,12.70
2017-10-14T23:49:55.946Z,12.70
2017-10-14T23:52:23.665Z,12.70
2017-10-14T23:54:51.370Z,12.60
2017-10-14T23:57:19.078Z,12.60
2017-10-14T23:59:46.779Z,12.60
